createdAt,value
2018-02-25T00:01:43.920Z,13.00
2018-02-25T00:05:07.260Z,13.73
2018-02-25T00:08:30.607Z,11.90
2018-02-25T00:11:54.711Z,12.37
2018-02-25T00:15:17.974Z,12.87
2018-02-25T00:18:41.318Z,13.30
2018-02-25T00:22:05.399Z,12.67
2018-02-25T00:25:28.681Z,13.20
2018-02-25T00:28:52.789Z,12.83
2018-02-25T00:32:16.903Z,12.90
2018-02-25T00:35:41.000Z,12.77
2018-02-25T00:39:05.121Z,11.23
2018-02-25T00:42:28.414Z,11.30
2018-02-25T00:45:51.694Z,12.77
2018-02-25T00:49:15.122Z,12.87
2018-02-25T00:52:38.400Z,11.83
2018-02-25T00:56:02.478Z,12.50
2018-02-25T00:59:26.574Z,12.03
2018-02-25T01:02:50.673Z,11.67
2018-02-25T01:06:14.738Z,11.50
2018-02-25T01:09:38.881Z,11.70
2018-02-25T01:13:03.766Z,11.77
2018-02-25T01:16:27.052Z,11.90
2018-02-25T01:19:50.421Z,11.53
2018-02-25T01:23:13.739Z,10.47
2018-02-25T01:26:37.124Z,11.83
2018-02-25T01:30:00.516Z,11.03
2018-02-25T01:33:23.853Z,12.03
2018-02-25T01:36:47.995Z,10.73
2018-02-25T01:40:11.295Z,10.47
2018-02-25T01:43:34.708Z,11.70
2018-02-25T01:46:57.986Z,11.43
2018-02-25T01:50:21.301Z,11.77
2018-02-25T01:53:44.613Z,11.03
2018-02-25T01:57:08.057Z,10.90
2018-02-25T02:00:31.386Z,10.70
2018-02-25T02:03:55.580Z,10.50
2018-02-25T02:07:18.884Z,10.03
2018-02-25T02:10:42.934Z,10.33
2018-02-25T02:14:07.126Z,9.80
2018-02-25T02:17:31.230Z,10.60
2018-02-25T02:20:54.514Z,9.90
2018-02-25T02:24:17.822Z,10.17
2018-02-25T02:27:41.195Z,9.67
2018-02-25T02:31:04.483Z,9.40
2018-02-25T02:34:28.578Z,10.10
2018-02-25T02:37:52.628Z,9.20
2018-02-25T02:41:15.966Z,8.97
2018-02-25T02:44:39.267Z,8.50
2018-02-25T02:48:02.568Z,8.43
2018-02-25T02:51:26.650Z,9.33
2018-02-25T02:54:50.748Z,8.57
2018-02-25T02:58:14.835Z,9.13
2018-02-25T03:01:38.917Z,8.50
2018-02-25T03:05:02.954Z,8.37
2018-02-25T03:08:27.752Z,8.13
2018-02-25T03:11:51.877Z,8.10
2018-02-25T03:15:15.253Z,8.33
2018-02-25T03:18:38.533Z,8.47
2018-02-25T03:22:02.607Z,8.17
2018-02-25T03:25:25.890Z,7.33
2018-02-25T03:28:50.011Z,8.70
2018-02-25T03:32:13.381Z,7.53
2018-02-25T03:35:36.706Z,7.30
2018-02-25T03:39:00.752Z,7.50
2018-02-25T03:42:24.876Z,8.40
2018-02-25T03:45:48.247Z,8.23
2018-02-25T03:49:11.580Z,8.03
2018-02-25T03:52:35.667Z,7.53
2018-02-25T03:55:59.777Z,7.47
2018-02-25T03:59:23.084Z,7.17
2018-02-25T04:02:47.150Z,7.80
2018-02-25T04:06:10.445Z,7.23
2018-02-25T04:09:33.737Z,8.67
2018-02-25T04:12:57.865Z,7.20
2018-02-25T04:16:21.239Z,7.07
2018-02-25T04:19:44.618Z,6.60
2018-02-25T04:23:08.701Z,6.53
2018-02-25T04:26:32.099Z,7.47
2018-02-25T04:29:55.369Z,7.10
2018-02-25T04:33:18.668Z,6.90
2018-02-25T04:36:42.742Z,6.53
2018-02-25T04:40:06.846Z,6.70
2018-02-25T04:43:30.934Z,6.23
2018-02-25T04:46:55.015Z,6.73
2018-02-25T04:50:19.101Z,6.33
2018-02-25T04:53:43.154Z,6.53
2018-02-25T04:57:06.483Z,7.20
2018-02-25T05:00:29.784Z,7.00
2018-02-25T05:03:53.828Z,6.60
2018-02-25T05:07:17.221Z,6.50
2018-02-25T05:10:40.588Z,6.30
2018-02-25T05:14:03.958Z,7.33
2018-02-25T05:17:27.395Z,7.03
2018-02-25T05:20:51.436Z,6.90
2018-02-25T05:24:15.496Z,7.23
2018-02-25T05:27:38.825Z,7.43
2018-02-25T05:31:02.174Z,6.73
2018-02-25T05:34:26.201Z,6.60
2018-02-25T05:37:49.507Z,7.47
2018-02-25T05:41:13.778Z,7.53
2018-02-25T05:44:37.867Z,7.10
2018-02-25T05:48:01.186Z,7.53
2018-02-25T05:51:24.567Z,7.03
2018-02-25T05:54:47.947Z,7.10
2018-02-25T05:58:12.000Z,7.70
2018-02-25T06:01:35.266Z,7.23
2018-02-25T06:04:58.585Z,6.80
2018-02-25T06:08:21.867Z,7.07
2018-02-25T06:11:45.211Z,7.97
2018-02-25T06:15:09.262Z,7.10
2018-02-25T06:18:32.546Z,7.30
2018-02-25T06:21:55.899Z,8.60
2018-02-25T06:25:19.190Z,7.43
2018-02-25T06:28:42.491Z,7.17
2018-02-25T06:32:05.877Z,6.60
2018-02-25T06:35:29.249Z,7.40
2018-02-25T06:38:52.683Z,7.63
2018-02-25T06:42:16.783Z,7.20
2018-02-25T06:45:40.075Z,7.80
2018-02-25T06:49:03.433Z,8.50
2018-02-25T06:52:26.769Z,7.20
2018-02-25T06:55:50.662Z,8.13
2018-02-25T06:59:14.821Z,8.17
2018-02-25T07:02:38.176Z,7.50
2018-02-25T07:06:02.239Z,8.90
2018-02-25T07:09:26.492Z,6.63
2018-02-25T07:12:50.667Z,8.03
2018-02-25T07:16:14.033Z,8.67
2018-02-25T07:19:37.479Z,8.17
2018-02-25T07:23:01.649Z,8.33
2018-02-25T07:26:25.759Z,8.33
2018-02-25T07:29:49.852Z,8.80
2018-02-25T07:33:13.284Z,8.33
2018-02-25T07:36:36.762Z,8.30
2018-02-25T07:40:00.125Z,8.87
2018-02-25T07:43:23.555Z,8.80
2018-02-25T07:46:46.955Z,9.37
2018-02-25T07:50:10.399Z,9.00
2018-02-25T07:53:34.601Z,8.33
2018-02-25T07:56:58.852Z,10.33
2018-02-25T08:00:22.954Z,9.03
2018-02-25T08:03:47.766Z,8.77
2018-02-25T08:07:11.238Z,9.27
2018-02-25T08:10:34.745Z,9.33
2018-02-25T08:13:58.313Z,8.97
2018-02-25T08:17:22.501Z,9.80
2018-02-25T08:20:46.653Z,9.63
2018-02-25T08:24:10.246Z,9.77
2018-02-25T08:27:33.846Z,9.93
2018-02-25T08:30:58.194Z,10.20
2018-02-25T08:34:22.464Z,9.40
2018-02-25T08:37:46.915Z,9.57
2018-02-25T08:41:10.306Z,10.23
2018-02-25T08:44:33.767Z,10.97
2018-02-25T08:47:58.205Z,9.93
2018-02-25T08:51:22.393Z,10.73
2018-02-25T08:54:46.592Z,10.37
2018-02-25T08:58:10.003Z,8.80
2018-02-25T09:01:33.625Z,10.40
2018-02-25T09:04:58.831Z,10.87
2018-02-25T09:08:22.368Z,10.27
2018-02-25T09:11:46.666Z,9.87
2018-02-25T09:15:13.409Z,12.07
2018-02-25T09:18:36.736Z,10.63
2018-02-25T09:22:01.011Z,11.03
2018-02-25T09:25:24.421Z,10.73
2018-02-25T09:28:50.537Z,10.97
2018-02-25T09:32:14.655Z,11.13
2018-02-25T09:35:38.074Z,11.00
2018-02-25T09:39:01.494Z,10.13
2018-02-25T09:42:24.826Z,11.20
2018-02-25T09:45:48.904Z,10.13
2018-02-25T09:49:12.970Z,11.27
2018-02-25T09:52:36.360Z,10.77
2018-02-25T09:55:59.729Z,11.53
2018-02-25T09:59:23.819Z,10.93
2018-02-25T10:02:47.165Z,11.90
2018-02-25T10:06:10.453Z,10.17
2018-02-25T10:09:33.765Z,11.37
2018-02-25T10:12:57.145Z,10.77
2018-02-25T10:16:20.457Z,12.37
2018-02-25T10:19:43.757Z,10.97
2018-02-25T10:23:07.077Z,12.00
2018-02-25T10:26:30.406Z,11.87
2018-02-25T10:29:53.761Z,11.67
2018-02-25T10:33:17.941Z,11.40
2018-02-25T10:36:42.072Z,12.43
2018-02-25T10:40:05.438Z,11.23
2018-02-25T10:43:29.580Z,10.80
2018-02-25T10:46:52.892Z,10.90
2018-02-25T10:50:16.213Z,11.73
2018-02-25T10:53:39.581Z,10.70
2018-02-25T10:57:02.888Z,11.03
2018-02-25T11:00:31.960Z,12.43
2018-02-25T11:03:56.045Z,11.47
2018-02-25T11:07:19.348Z,12.17
2018-02-25T11:10:42.699Z,11.37
2018-02-25T11:14:06.940Z,11.23
2018-02-25T11:17:30.362Z,11.20
2018-02-25T11:20:54.534Z,11.40
2018-02-25T11:24:17.825Z,12.20
2018-02-25T11:27:41.118Z,11.23
2018-02-25T11:31:04.488Z,11.17
2018-02-25T11:34:27.800Z,11.30
2018-02-25T11:37:51.126Z,11.10
2018-02-25T11:41:14.474Z,11.80
2018-02-25T11:44:37.841Z,12.07
2018-02-25T11:48:02.027Z,11.07
2018-02-25T11:51:26.076Z,11.43
2018-02-25T11:54:49.431Z,11.27
2018-02-25T11:58:13.569Z,12.27
2018-02-25T12:01:37.649Z,11.47
2018-02-25T12:05:01.746Z,11.23
2018-02-25T12:08:25.858Z,10.60
2018-02-25T12:11:49.293Z,10.90
2018-02-25T12:15:12.602Z,12.93
2018-02-25T12:18:36.001Z,10.97
2018-02-25T12:21:59.372Z,11.57
2018-02-25T12:25:22.762Z,12.33
2018-02-25T12:28:46.165Z,11.87
2018-02-25T12:32:10.251Z,12.47
2018-02-25T12:35:34.337Z,11.80
2018-02-25T12:38:58.650Z,11.07
2018-02-25T12:42:21.991Z,11.97
2018-02-25T12:45:46.060Z,11.97
2018-02-25T12:49:09.526Z,12.07
2018-02-25T12:52:32.855Z,11.93
2018-02-25T12:55:56.997Z,10.90
2018-02-25T12:59:21.127Z,11.70
2018-02-25T13:02:44.550Z,10.77
2018-02-25T13:06:07.830Z,10.90
2018-02-25T13:09:31.936Z,11.20
2018-02-25T13:12:55.275Z,9.90
2018-02-25T13:16:18.646Z,11.33
2018-02-25T13:19:41.926Z,11.37
2018-02-25T13:23:06.053Z,11.93
2018-02-25T13:26:29.431Z,11.37
2018-02-25T13:29:53.558Z,11.37
2018-02-25T13:33:16.951Z,11.13
2018-02-25T13:36:41.008Z,10.30
2018-02-25T13:40:04.342Z,10.17
2018-02-25T13:43:28.516Z,10.30
2018-02-25T13:46:52.029Z,10.20
2018-02-25T13:50:15.371Z,11.00
2018-02-25T13:53:38.793Z,9.63
2018-02-25T13:57:02.895Z,10.07
2018-02-25T14:00:26.143Z,9.90
2018-02-25T14:03:49.513Z,9.40
2018-02-25T14:07:12.881Z,9.47
2018-02-25T14:10:36.253Z,9.90
2018-02-25T14:13:59.541Z,10.50
2018-02-25T14:17:22.823Z,9.83
2018-02-25T14:20:46.105Z,10.23
2018-02-25T14:24:09.479Z,9.17
2018-02-25T14:27:32.762Z,9.43
2018-02-25T14:30:56.914Z,9.67
2018-02-25T14:34:20.186Z,9.30
2018-02-25T14:37:43.521Z,9.30
2018-02-25T14:41:06.822Z,8.80
2018-02-25T14:44:30.149Z,9.13
2018-02-25T14:47:53.457Z,8.90
2018-02-25T14:51:16.764Z,8.47
2018-02-25T14:54:40.913Z,9.27
2018-02-25T14:58:04.256Z,8.93
2018-02-25T15:01:27.625Z,8.47
2018-02-25T15:04:51.041Z,9.20
2018-02-25T15:08:14.393Z,8.73
2018-02-25T15:11:38.429Z,9.50
2018-02-25T15:15:01.773Z,8.90
2018-02-25T15:18:25.095Z,8.07
2018-02-25T15:21:48.463Z,8.07
2018-02-25T15:25:11.838Z,7.87
2018-02-25T15:28:35.128Z,7.90
2018-02-25T15:31:58.527Z,7.70
2018-02-25T15:35:21.807Z,7.40
2018-02-25T15:38:45.985Z,7.40
2018-02-25T15:42:09.480Z,7.37
2018-02-25T15:45:32.850Z,8.00
2018-02-25T15:48:57.061Z,8.40
2018-02-25T15:52:20.432Z,7.50
2018-02-25T15:55:44.160Z,7.57
2018-02-25T15:59:07.578Z,7.27
2018-02-25T16:02:30.895Z,7.40
2018-02-25T16:05:54.375Z,7.07
2018-02-25T16:09:17.701Z,6.73
2018-02-25T16:12:41.074Z,7.50
2018-02-25T16:16:05.288Z,7.17
2018-02-25T16:19:28.787Z,6.90
2018-02-25T16:22:52.988Z,6.50
2018-02-25T16:26:17.080Z,7.23
2018-02-25T16:29:41.252Z,7.63
2018-02-25T16:33:05.489Z,7.33
2018-02-25T16:36:28.973Z,7.03
2018-02-25T16:39:53.114Z,7.40
2018-02-25T16:43:17.223Z,7.33
2018-02-25T16:46:40.610Z,7.03
2018-02-25T16:50:04.671Z,7.07
2018-02-25T16:53:27.934Z,7.47
2018-02-25T16:56:51.286Z,7.63
2018-02-25T17:00:15.357Z,7.57
2018-02-25T17:03:38.715Z,7.07
2018-02-25T17:07:02.006Z,7.33
2018-02-25T17:10:26.137Z,7.23
2018-02-25T17:13:49.490Z,7.63
2018-02-25T17:17:12.831Z,7.10
2018-02-25T17:20:36.138Z,6.83
2018-02-25T17:23:59.484Z,8.33
2018-02-25T17:27:23.569Z,6.20
2018-02-25T17:30:47.700Z,6.40
2018-02-25T17:34:11.169Z,6.20
2018-02-25T17:37:34.464Z,5.60
2018-02-25T17:40:57.811Z,5.97
2018-02-25T17:44:21.092Z,5.73
2018-02-25T17:47:45.156Z,6.47
2018-02-25T17:51:08.460Z,6.43
2018-02-25T17:54:31.746Z,5.97
2018-02-25T17:57:55.062Z,6.63
2018-02-25T18:01:18.417Z,6.73
2018-02-25T18:04:41.735Z,6.13
2018-02-25T18:08:05.056Z,5.73
2018-02-25T18:11:28.430Z,5.77
2018-02-25T18:14:51.867Z,6.43
2018-02-25T18:18:15.168Z,6.50
2018-02-25T18:21:38.556Z,6.00
2018-02-25T18:25:02.902Z,5.83
2018-02-25T18:28:26.975Z,5.77
2018-02-25T18:31:50.312Z,5.57
2018-02-25T18:35:14.397Z,5.83
2018-02-25T18:38:38.492Z,6.30
2018-02-25T18:42:02.620Z,5.93
2018-02-25T18:45:26.711Z,6.60
2018-02-25T18:48:50.779Z,5.87
2018-02-25T18:52:14.117Z,5.50
2018-02-25T18:55:38.378Z,5.93
2018-02-25T18:59:01.772Z,6.07
2018-02-25T19:02:25.087Z,6.57
2018-02-25T19:05:48.474Z,6.27
2018-02-25T19:09:12.531Z,5.90
2018-02-25T19:12:37.351Z,6.37
2018-02-25T19:16:00.742Z,6.13
2018-02-25T19:19:25.096Z,6.17
2018-02-25T19:22:54.684Z,6.40
2018-02-25T19:26:18.993Z,6.10
2018-02-25T19:29:43.103Z,6.30
2018-02-25T19:33:06.407Z,6.57
2018-02-25T19:36:35.162Z,6.57
2018-02-25T19:40:03.621Z,6.80
2018-02-25T19:43:27.819Z,5.87
2018-02-25T19:46:51.927Z,6.33
2018-02-25T19:50:15.310Z,5.53
2018-02-25T19:53:38.737Z,5.83
2018-02-25T19:57:02.360Z,5.97
2018-02-25T20:00:25.813Z,5.90
2018-02-25T20:03:49.370Z,6.43
2018-02-25T20:07:13.554Z,6.83
2018-02-25T20:10:38.102Z,6.53
2018-02-25T20:14:02.468Z,7.33
2018-02-25T20:17:25.981Z,6.67
2018-02-25T20:20:50.184Z,6.73
2018-02-25T20:24:13.741Z,6.63
2018-02-25T20:27:38.768Z,6.50
2018-02-25T20:31:02.158Z,6.33
2018-02-25T20:34:29.453Z,6.37
2018-02-25T20:37:52.880Z,6.47
2018-02-25T20:41:16.388Z,6.20
2018-02-25T20:44:40.517Z,6.33
2018-02-25T20:48:04.703Z,6.63
2018-02-25T20:51:28.867Z,7.03
2018-02-25T20:54:52.337Z,6.63
2018-02-25T20:58:15.932Z,6.90
2018-02-25T21:01:39.293Z,6.63
2018-02-25T21:05:02.796Z,6.27
2018-02-25T21:08:26.872Z,6.90
2018-02-25T21:11:51.158Z,6.60
2018-02-25T21:15:15.225Z,6.90
2018-02-25T21:18:38.562Z,6.63
2018-02-25T21:22:02.794Z,6.63
2018-02-25T21:25:26.830Z,6.73
2018-02-25T21:28:50.207Z,7.13
2018-02-25T21:32:14.302Z,6.73
2018-02-25T21:35:38.428Z,7.40
2018-02-25T21:39:01.726Z,7.13
2018-02-25T21:42:25.138Z,6.77
2018-02-25T21:45:49.266Z,7.10
2018-02-25T21:49:13.419Z,7.43
2018-02-25T21:52:51.289Z,8.13
2018-02-25T21:56:20.122Z,7.83
2018-02-25T21:59:48.851Z,7.13
2018-02-25T22:07:07.598Z,7.53
2018-02-25T22:10:31.727Z,7.13
2018-02-25T22:13:55.150Z,7.80
2018-02-25T22:17:18.600Z,7.43
2018-02-25T22:20:42.060Z,7.77
2018-02-25T22:24:06.217Z,7.60
2018-02-25T22:27:29.503Z,8.00
2018-02-25T22:30:52.802Z,8.37
2018-02-25T22:34:16.092Z,7.97
2018-02-25T22:37:40.226Z,7.30
2018-02-25T22:41:03.600Z,7.90
2018-02-25T22:44:26.971Z,7.70
2018-02-25T22:47:50.292Z,7.73
2018-02-25T22:51:14.351Z,7.60
2018-02-25T22:54:37.690Z,7.67
2018-02-25T22:58:01.013Z,8.63
2018-02-25T23:01:24.328Z,7.50
2018-02-25T23:04:47.631Z,7.87
2018-02-25T23:08:11.020Z,8.33
2018-02-25T23:11:34.396Z,7.57
2018-02-25T23:14:58.525Z,8.80
2018-02-25T23:18:21.843Z,7.73
2018-02-25T23:21:45.136Z,7.03
2018-02-25T23:25:09.261Z,7.43
2018-02-25T23:28:33.457Z,7.70
2018-02-25T23:31:57.577Z,7.50
2018-02-25T23:35:20.864Z,6.23
2018-02-25T23:38:44.968Z,7.63
2018-02-25T23:42:08.276Z,6.77
2018-02-25T23:45:32.344Z,7.07
2018-02-25T23:48:55.717Z,7.80
2018-02-25T23:52:19.766Z,6.13
2018-02-25T23:55:43.892Z,6.60
2018-02-25T23:59:08.991Z,6.40
